PWSweather.com
Personal Weather Stations
Station Observations
THRCKWTHR1
Aveley, EssexGB RM154EL

AveleyEssexGB RM154EL

Lat: 51.5000552, Lon: 0.2501753000000235

Elevation: 98.5

Station Type: Oregon Scientific WMR88

Latest ConditionsUpdated 7:40:02 AM GMT Tuesday, Oct 24, 2017
Currently Today's Max Today's Min Today's Average
Temperature 60.3°F15.7°C 60.3°F15.7°C 56.3°F13.5°C 58.3°F14.6°C
Dew Point 58.5°F14.7°C 58.5°F14.7°C 54.6°F12.6°C 56.5°F13.6°C
Winds 2.5 mph SSW4.0 kmh SSW 6.5 mph SSW10.5 kmh SSW - 2.0 mph 3.2 kmh
Wind Gusts 5.5 mph8.9 kmh 7.6 mph12.2 kmh - -
Humidity 94% 95% 94% 94%
Pressure 30.18 in1022.0 mb 30.18 in1022.0 mb 30.15 in1021.0 mb -
Hour Temp Dew Point Humidity Winds Wind Gusts Pressure Precip Precip Rate Daily Precip Total
07:40 AM 60.3°F15.7°C 58.5°F14.7°C 94% 2.5 mph SSW4.0 kmh SSW 5.5 mph8.9 kmh 30.18 in1022.0 mb 0.00 in0.0 mm 0.00 in0.0 mm 0.00 in0.0 mm
07:35 AM 60.1°F15.6°C 58.3°F14.6°C 94% 5.5 mph SSW8.9 kmh SSW 5.7 mph9.2 kmh 30.18 in1022.0 mb 0.00 in0.0 mm 0.00 in0.0 mm 0.00 in0.0 mm
07:30 AM 60.1°F15.6°C 58.3°F14.6°C 94% 2.5 mph SW4.0 kmh SW 5.7 mph9.2 kmh 30.18 in1022.0 mb 0.00 in0.0 mm 0.00 in0.0 mm 0.00 in0.0 mm
07:25 AM 59.9°F15.5°C 58.2°F14.6°C 94% 5.7 mph SSW9.2 kmh SSW 5.7 mph9.2 kmh 30.18 in1022.0 mb 0.00 in0.0 mm 0.00 in0.0 mm 0.00 in0.0 mm
07:20 AM 59.7°F15.4°C 58.0°F14.4°C 94% 2.5 mph SSW4.0 kmh SSW 5.2 mph8.4 kmh 30.15 in1021.0 mb 0.00 in0.0 mm 0.00 in0.0 mm 0.00 in0.0 mm
07:15 AM 59.7°F15.4°C 58.0°F14.4°C 94% 4.1 mph SSW6.6 kmh SSW 4.4 mph7.1 kmh 30.15 in1021.0 mb 0.00 in0.0 mm 0.00 in0.0 mm 0.00 in0.0 mm
07:10 AM 59.5°F15.3°C 57.8°F14.3°C 94% 1.4 mph SSW2.3 kmh SSW 4.9 mph7.9 kmh 30.15 in1021.0 mb 0.00 in0.0 mm 0.00 in0.0 mm 0.00 in0.0 mm
07:05 AM 59.5°F15.3°C 57.8°F14.3°C 94% Calm Calm 5.2 mph8.4 kmh 30.15 in1021.0 mb 0.00 in0.0 mm 0.00 in0.0 mm 0.00 in0.0 mm
07:00 AM 59.5°F15.3°C 57.8°F14.3°C 94% 1.4 mph SSW2.3 kmh SSW 7.6 mph12.2 kmh 30.15 in1021.0 mb 0.00 in0.0 mm 0.00 in0.0 mm 0.00 in0.0 mm
06:55 AM 59.5°F15.3°C 57.8°F14.3°C 94% 4.6 mph SSW7.4 kmh SSW 7.6 mph12.2 kmh 30.15 in1021.0 mb 0.00 in0.0 mm 0.00 in0.0 mm 0.00 in0.0 mm
06:50 AM 59.5°F15.3°C 57.8°F14.3°C 94% 2.5 mph SW4.0 kmh SW 6.8 mph10.9 kmh 30.15 in1021.0 mb 0.00 in0.0 mm 0.00 in0.0 mm 0.00 in0.0 mm
06:45 AM 59.5°F15.3°C 57.8°F14.3°C 94% 4.9 mph SSW7.9 kmh SSW 6.5 mph10.5 kmh 30.15 in1021.0 mb 0.00 in0.0 mm 0.00 in0.0 mm 0.00 in0.0 mm
06:40 AM 59.5°F15.3°C 57.8°F14.3°C 94% 3.3 mph SSW5.3 kmh SSW 5.2 mph8.4 kmh 30.15 in1021.0 mb 0.00 in0.0 mm 0.00 in0.0 mm 0.00 in0.0 mm
06:35 AM 59.5°F15.3°C 57.8°F14.3°C 94% 3.5 mph SSW5.6 kmh SSW 4.6 mph7.4 kmh 30.15 in1021.0 mb 0.00 in0.0 mm 0.00 in0.0 mm 0.00 in0.0 mm
06:30 AM 59.4°F15.2°C 57.6°F14.2°C 94% 3.3 mph S5.3 kmh S 4.6 mph7.4 kmh 30.15 in1021.0 mb 0.00 in0.0 mm 0.00 in0.0 mm 0.00 in0.0 mm
06:25 AM 59.4°F15.2°C 57.6°F14.2°C 94% 3.0 mph SSW4.8 kmh SSW 4.1 mph6.6 kmh 30.15 in1021.0 mb 0.00 in0.0 mm 0.00 in0.0 mm 0.00 in0.0 mm
06:20 AM 59.4°F15.2°C 57.6°F14.2°C 94% 1.9 mph SW3.1 kmh SW 4.1 mph6.6 kmh 30.15 in1021.0 mb 0.00 in0.0 mm 0.00 in0.0 mm 0.00 in0.0 mm
06:15 AM 59.4°F15.2°C 57.6°F14.2°C 94% 4.1 mph SW6.6 kmh SW 6.5 mph10.5 kmh 30.15 in1021.0 mb 0.00 in0.0 mm 0.00 in0.0 mm 0.00 in0.0 mm
06:10 AM 59.5°F15.3°C 57.8°F14.3°C 94% 1.1 mph SSW1.8 kmh SSW 6.5 mph10.5 kmh 30.15 in1021.0 mb 0.00 in0.0 mm 0.00 in0.0 mm 0.00 in0.0 mm
06:05 AM 59.4°F15.2°C 57.6°F14.2°C 94% 6.5 mph SSW10.5 kmh SSW 6.5 mph10.5 kmh 30.15 in1021.0 mb 0.00 in0.0 mm 0.00 in0.0 mm 0.00 in0.0 mm
06:00 AM 59.4°F15.2°C 57.6°F14.2°C 94% 4.6 mph SSW7.4 kmh SSW 4.6 mph7.4 kmh 30.15 in1021.0 mb 0.00 in0.0 mm 0.00 in0.0 mm 0.00 in0.0 mm
05:55 AM 59.4°F15.2°C 57.6°F14.2°C 94% 3.8 mph SSW6.1 kmh SSW 3.8 mph6.1 kmh 30.15 in1021.0 mb 0.00 in0.0 mm 0.00 in0.0 mm 0.00 in0.0 mm
05:50 AM 59.4°F15.2°C 57.6°F14.2°C 94% 1.1 mph S1.8 kmh S 4.9 mph7.9 kmh 30.15 in1021.0 mb 0.00 in0.0 mm 0.00 in0.0 mm 0.00 in0.0 mm
05:45 AM 59.4°F15.2°C 57.6°F14.2°C 94% Calm Calm 4.9 mph7.9 kmh 30.15 in1021.0 mb 0.00 in0.0 mm 0.00 in0.0 mm 0.00 in0.0 mm
05:40 AM 59.4°F15.2°C 57.6°F14.2°C 94% 3.5 mph SSW5.6 kmh SSW 5.2 mph8.4 kmh 30.15 in1021.0 mb 0.00 in0.0 mm 0.00 in0.0 mm 0.00 in0.0 mm
05:35 AM 59.4°F15.2°C 57.6°F14.2°C 94% 2.5 mph SSW4.0 kmh SSW 6.8 mph10.9 kmh 30.15 in1021.0 mb 0.00 in0.0 mm 0.00 in0.0 mm 0.00 in0.0 mm
05:30 AM 59.4°F15.2°C 57.6°F14.2°C 94% 5.2 mph S8.4 kmh S 6.8 mph10.9 kmh 30.15 in1021.0 mb 0.00 in0.0 mm 0.00 in0.0 mm 0.00 in0.0 mm
05:25 AM 59.4°F15.2°C 57.6°F14.2°C 94% 1.6 mph S2.6 kmh S 4.1 mph6.6 kmh 30.15 in1021.0 mb 0.00 in0.0 mm 0.00 in0.0 mm 0.00 in0.0 mm
05:20 AM 59.4°F15.2°C 57.6°F14.2°C 94% 1.6 mph SSW2.6 kmh SSW 4.6 mph7.4 kmh 30.15 in1021.0 mb 0.00 in0.0 mm 0.00 in0.0 mm 0.00 in0.0 mm
05:15 AM 59.2°F15.1°C 57.5°F14.2°C 94% 2.7 mph SSW4.3 kmh SSW 7.6 mph12.2 kmh 30.15 in1021.0 mb 0.00 in0.0 mm 0.00 in0.0 mm 0.00 in0.0 mm
05:10 AM 59.2°F15.1°C 57.5°F14.2°C 94% Calm Calm 7.6 mph12.2 kmh 30.15 in1021.0 mb 0.00 in0.0 mm 0.00 in0.0 mm 0.00 in0.0 mm
05:05 AM 59.2°F15.1°C 57.5°F14.2°C 94% 3.3 mph SW5.3 kmh SW 3.8 mph6.1 kmh 30.15 in1021.0 mb 0.00 in0.0 mm 0.00 in0.0 mm 0.00 in0.0 mm
05:00 AM 59.2°F15.1°C 57.5°F14.2°C 94% 1.9 mph SW3.1 kmh SW 3.8 mph6.1 kmh 30.15 in1021.0 mb 0.00 in0.0 mm 0.00 in0.0 mm 0.00 in0.0 mm
04:55 AM 59.0°F15.0°C 57.3°F14.1°C 94% Calm Calm 4.4 mph7.1 kmh 30.15 in1021.0 mb 0.00 in0.0 mm 0.00 in0.0 mm 0.00 in0.0 mm
04:50 AM 59.0°F15.0°C 57.3°F14.1°C 94% Calm Calm 7.6 mph12.2 kmh 30.15 in1021.0 mb 0.00 in0.0 mm 0.00 in0.0 mm 0.00 in0.0 mm
04:45 AM 59.0°F15.0°C 57.3°F14.1°C 94% 4.4 mph SW7.1 kmh SW 7.6 mph12.2 kmh 30.15 in1021.0 mb 0.00 in0.0 mm 0.00 in0.0 mm 0.00 in0.0 mm
04:40 AM 59.0°F15.0°C 57.3°F14.1°C 94% 1.1 mph SW1.8 kmh SW 5.5 mph8.9 kmh 30.15 in1021.0 mb 0.00 in0.0 mm 0.00 in0.0 mm 0.00 in0.0 mm
04:35 AM 58.8°F14.9°C 57.4°F14.1°C 95% 2.5 mph SW4.0 kmh SW 5.2 mph8.4 kmh 30.15 in1021.0 mb 0.00 in0.0 mm 0.00 in0.0 mm 0.00 in0.0 mm
04:30 AM 58.8°F14.9°C 57.4°F14.1°C 95% 1.1 mph SW1.8 kmh SW 5.2 mph8.4 kmh 30.15 in1021.0 mb 0.00 in0.0 mm 0.00 in0.0 mm 0.00 in0.0 mm
04:25 AM 58.8°F14.9°C 57.4°F14.1°C 95% 2.7 mph SW4.3 kmh SW 4.4 mph7.1 kmh 30.15 in1021.0 mb 0.00 in0.0 mm 0.00 in0.0 mm 0.00 in0.0 mm
04:20 AM 58.6°F14.8°C 57.2°F14.0°C 95% 3.5 mph SSW5.6 kmh SSW 6.8 mph10.9 kmh 30.15 in1021.0 mb 0.00 in0.0 mm 0.00 in0.0 mm 0.00 in0.0 mm
04:15 AM 58.6°F14.8°C 57.2°F14.0°C 95% 1.9 mph SSW3.1 kmh SSW 6.8 mph10.9 kmh 30.15 in1021.0 mb 0.00 in0.0 mm 0.00 in0.0 mm 0.00 in0.0 mm
04:10 AM 58.5°F14.7°C 56.7°F13.7°C 94% 3.0 mph SSW4.8 kmh SSW 4.4 mph7.1 kmh 30.15 in1021.0 mb 0.00 in0.0 mm 0.00 in0.0 mm 0.00 in0.0 mm
04:05 AM 58.5°F14.7°C 56.7°F13.7°C 94% 1.6 mph SSW2.6 kmh SSW 4.4 mph7.1 kmh 30.15 in1021.0 mb 0.00 in0.0 mm 0.00 in0.0 mm 0.00 in0.0 mm
04:00 AM 58.3°F14.6°C 56.6°F13.7°C 94% 1.6 mph SW2.6 kmh SW 4.6 mph7.4 kmh 30.15 in1021.0 mb 0.00 in0.0 mm 0.00 in0.0 mm 0.00 in0.0 mm
03:55 AM 58.3°F14.6°C 56.6°F13.7°C 94% 1.6 mph SW2.6 kmh SW 4.6 mph7.4 kmh 30.15 in1021.0 mb 0.00 in0.0 mm 0.00 in0.0 mm 0.00 in0.0 mm
03:50 AM 58.3°F14.6°C 56.6°F13.7°C 94% 4.4 mph SW7.1 kmh SW 4.4 mph7.1 kmh 30.15 in1021.0 mb 0.00 in0.0 mm 0.00 in0.0 mm 0.00 in0.0 mm
03:45 AM 58.1°F14.5°C 56.4°F13.6°C 94% 1.9 mph SSW3.1 kmh SSW 2.7 mph4.3 kmh 30.15 in1021.0 mb 0.00 in0.0 mm 0.00 in0.0 mm 0.00 in0.0 mm
03:40 AM 58.1°F14.5°C 56.4°F13.6°C 94% Calm Calm 4.6 mph7.4 kmh 30.15 in1021.0 mb 0.00 in0.0 mm 0.00 in0.0 mm 0.00 in0.0 mm
03:35 AM 58.1°F14.5°C 56.4°F13.6°C 94% 1.9 mph SW3.1 kmh SW 4.6 mph7.4 kmh 30.15 in1021.0 mb 0.00 in0.0 mm 0.00 in0.0 mm 0.00 in0.0 mm
03:30 AM 57.9°F14.4°C 56.2°F13.4°C 94% Calm Calm 3.3 mph5.3 kmh 30.15 in1021.0 mb 0.00 in0.0 mm 0.00 in0.0 mm 0.00 in0.0 mm
03:25 AM 57.9°F14.4°C 56.2°F13.4°C 94% Calm Calm 3.5 mph5.6 kmh 30.15 in1021.0 mb 0.00 in0.0 mm 0.00 in0.0 mm 0.00 in0.0 mm
03:20 AM 57.9°F14.4°C 56.2°F13.4°C 94% 2.7 mph SSW4.3 kmh SSW 3.5 mph5.6 kmh 30.15 in1021.0 mb 0.00 in0.0 mm 0.00 in0.0 mm 0.00 in0.0 mm
03:15 AM 57.7°F14.3°C 56.0°F13.3°C 94% Calm Calm 2.7 mph4.3 kmh 30.15 in1021.0 mb 0.00 in0.0 mm 0.00 in0.0 mm 0.00 in0.0 mm
03:10 AM 57.7°F14.3°C 56.0°F13.3°C 94% 1.4 mph SSW2.3 kmh SSW 3.0 mph4.8 kmh 30.15 in1021.0 mb 0.00 in0.0 mm 0.00 in0.0 mm 0.00 in0.0 mm
03:05 AM 57.6°F14.2°C 55.8°F13.2°C 94% 1.1 mph SW1.8 kmh SW 3.5 mph5.6 kmh 30.15 in1021.0 mb 0.00 in0.0 mm 0.00 in0.0 mm 0.00 in0.0 mm
03:00 AM 57.6°F14.2°C 55.8°F13.2°C 94% 1.4 mph SW2.3 kmh SW 3.5 mph5.6 kmh 30.15 in1021.0 mb 0.00 in0.0 mm 0.00 in0.0 mm 0.00 in0.0 mm
02:55 AM 57.6°F14.2°C 55.8°F13.2°C 94% 3.3 mph SW5.3 kmh SW 4.6 mph7.4 kmh 30.15 in1021.0 mb 0.00 in0.0 mm 0.00 in0.0 mm 0.00 in0.0 mm
02:50 AM 57.4°F14.1°C 55.7°F13.2°C 94% Calm Calm 4.6 mph7.4 kmh 30.15 in1021.0 mb 0.00 in0.0 mm 0.00 in0.0 mm 0.00 in0.0 mm
02:45 AM 57.2°F14.0°C 55.5°F13.1°C 94% 3.3 mph SW5.3 kmh SW 3.8 mph6.1 kmh 30.15 in1021.0 mb 0.00 in0.0 mm 0.00 in0.0 mm 0.00 in0.0 mm
02:40 AM 57.2°F14.0°C 55.5°F13.1°C 94% 3.8 mph SW6.1 kmh SW 3.8 mph6.1 kmh 30.15 in1021.0 mb 0.00 in0.0 mm 0.00 in0.0 mm 0.00 in0.0 mm
02:35 AM 57.2°F14.0°C 55.5°F13.1°C 94% Calm Calm 3.5 mph5.6 kmh 30.15 in1021.0 mb 0.00 in0.0 mm 0.00 in0.0 mm 0.00 in0.0 mm
02:30 AM 57.2°F14.0°C 55.5°F13.1°C 94% 3.5 mph SSW5.6 kmh SSW 3.5 mph5.6 kmh 30.15 in1021.0 mb 0.00 in0.0 mm 0.00 in0.0 mm 0.00 in0.0 mm
02:25 AM 57.2°F14.0°C 55.5°F13.1°C 94% Calm Calm -- 30.15 in1021.0 mb 0.00 in0.0 mm 0.00 in0.0 mm 0.00 in0.0 mm
02:20 AM 57.0°F13.9°C 55.3°F12.9°C 94% Calm Calm 3.3 mph5.3 kmh 30.18 in1022.0 mb 0.00 in0.0 mm 0.00 in0.0 mm 0.00 in0.0 mm
02:15 AM 57.0°F13.9°C 55.3°F12.9°C 94% Calm Calm 3.3 mph5.3 kmh 30.18 in1022.0 mb 0.00 in0.0 mm 0.00 in0.0 mm 0.00 in0.0 mm
02:10 AM 57.0°F13.9°C 55.3°F12.9°C 94% Calm Calm 3.0 mph4.8 kmh 30.18 in1022.0 mb 0.00 in0.0 mm 0.00 in0.0 mm 0.00 in0.0 mm
02:05 AM 56.8°F13.8°C 55.1°F12.8°C 94% Calm Calm 3.5 mph5.6 kmh 30.18 in1022.0 mb 0.00 in0.0 mm 0.00 in0.0 mm 0.00 in0.0 mm
02:00 AM 56.8°F13.8°C 55.1°F12.8°C 94% Calm Calm 4.6 mph7.4 kmh 30.18 in1022.0 mb 0.00 in0.0 mm 0.00 in0.0 mm 0.00 in0.0 mm
01:55 AM 56.7°F13.7°C 55.0°F12.8°C 94% 3.5 mph SW5.6 kmh SW 4.6 mph7.4 kmh 30.18 in1022.0 mb 0.00 in0.0 mm 0.00 in0.0 mm 0.00 in0.0 mm
01:50 AM 56.7°F13.7°C 55.0°F12.8°C 94% 4.4 mph SW7.1 kmh SW 4.4 mph7.1 kmh 30.15 in1021.0 mb 0.00 in0.0 mm 0.00 in0.0 mm 0.00 in0.0 mm
01:45 AM 56.7°F13.7°C 55.0°F12.8°C 94% 1.9 mph SW3.1 kmh SW 3.3 mph5.3 kmh 30.15 in1021.0 mb 0.00 in0.0 mm 0.00 in0.0 mm 0.00 in0.0 mm
01:40 AM 56.7°F13.7°C 55.0°F12.8°C 94% Calm Calm 3.8 mph6.1 kmh 30.15 in1021.0 mb 0.00 in0.0 mm 0.00 in0.0 mm 0.00 in0.0 mm
01:35 AM 56.7°F13.7°C 55.0°F12.8°C 94% 2.5 mph SW4.0 kmh SW 3.8 mph6.1 kmh 30.18 in1022.0 mb 0.00 in0.0 mm 0.00 in0.0 mm 0.00 in0.0 mm
01:30 AM 56.5°F13.6°C 54.8°F12.7°C 94% Calm Calm 3.3 mph5.3 kmh 30.18 in1022.0 mb 0.00 in0.0 mm 0.00 in0.0 mm 0.00 in0.0 mm
01:25 AM 56.5°F13.6°C 54.8°F12.7°C 94% 3.3 mph SW5.3 kmh SW 4.4 mph7.1 kmh 30.18 in1022.0 mb 0.00 in0.0 mm 0.00 in0.0 mm 0.00 in0.0 mm
01:20 AM 56.5°F13.6°C 54.8°F12.7°C 94% 4.1 mph SW6.6 kmh SW 4.4 mph7.1 kmh 30.18 in1022.0 mb 0.00 in0.0 mm 0.00 in0.0 mm 0.00 in0.0 mm
01:15 AM 56.3°F13.5°C 54.6°F12.6°C 94% 3.8 mph SW6.1 kmh SW 3.8 mph6.1 kmh 30.18 in1022.0 mb 0.00 in0.0 mm 0.00 in0.0 mm 0.00 in0.0 mm
01:10 AM 56.3°F13.5°C 54.6°F12.6°C 94% 2.5 mph SSW4.0 kmh SSW 3.0 mph4.8 kmh 30.18 in1022.0 mb 0.00 in0.0 mm 0.00 in0.0 mm 0.00 in0.0 mm
01:05 AM 56.3°F13.5°C 54.6°F12.6°C 94% Calm Calm 1.9 mph3.1 kmh 30.18 in1022.0 mb 0.00 in0.0 mm 0.00 in0.0 mm 0.00 in0.0 mm
01:00 AM 56.5°F13.6°C 54.8°F12.7°C 94% Calm Calm 5.2 mph8.4 kmh 30.18 in1022.0 mb 0.00 in0.0 mm 0.00 in0.0 mm 0.00 in0.0 mm
12:55 AM 56.7°F13.7°C 55.0°F12.8°C 94% Calm Calm 5.2 mph8.4 kmh 30.18 in1022.0 mb 0.00 in0.0 mm 0.00 in0.0 mm 0.00 in0.0 mm
12:50 AM 56.8°F13.8°C 55.1°F12.8°C 94% 3.5 mph SW5.6 kmh SW 4.1 mph6.6 kmh 30.18 in1022.0 mb 0.00 in0.0 mm 0.00 in0.0 mm 0.00 in0.0 mm
12:45 AM 57.0°F13.9°C 55.3°F12.9°C 94% Calm Calm 4.1 mph6.6 kmh 30.18 in1022.0 mb 0.00 in0.0 mm 0.00 in0.0 mm 0.00 in0.0 mm
12:40 AM 57.2°F14.0°C 55.5°F13.1°C 94% Calm Calm 3.0 mph4.8 kmh 30.18 in1022.0 mb 0.00 in0.0 mm 0.00 in0.0 mm 0.00 in0.0 mm
12:35 AM 57.4°F14.1°C 55.7°F13.2°C 94% 1.4 mph SW2.3 kmh SW 3.5 mph5.6 kmh 30.18 in1022.0 mb 0.00 in0.0 mm 0.00 in0.0 mm 0.00 in0.0 mm
12:30 AM 57.6°F14.2°C 55.8°F13.2°C 94% Calm Calm 3.5 mph5.6 kmh 30.18 in1022.0 mb 0.00 in0.0 mm 0.00 in0.0 mm 0.00 in0.0 mm
12:25 AM 57.7°F14.3°C 56.0°F13.3°C 94% 1.4 mph SSW2.3 kmh SSW 4.4 mph7.1 kmh 30.18 in1022.0 mb 0.00 in0.0 mm 0.00 in0.0 mm 0.00 in0.0 mm
12:20 AM 57.7°F14.3°C 56.0°F13.3°C 94% Calm Calm 4.4 mph7.1 kmh 30.18 in1022.0 mb 0.00 in0.0 mm 0.00 in0.0 mm 0.00 in0.0 mm
12:15 AM 57.9°F14.4°C 56.2°F13.4°C 94% 1.4 mph SW2.3 kmh SW 4.1 mph6.6 kmh 30.18 in1022.0 mb 0.00 in0.0 mm 0.00 in0.0 mm 0.00 in0.0 mm
12:10 AM 57.9°F14.4°C 56.2°F13.4°C 94% 4.1 mph SW6.6 kmh SW 5.7 mph9.2 kmh 30.18 in1022.0 mb 0.00 in0.0 mm 0.00 in0.0 mm 0.00 in0.0 mm
12:05 AM 58.1°F14.5°C 56.4°F13.6°C 94% 1.4 mph SW2.3 kmh SW 5.7 mph9.2 kmh 30.15 in1021.0 mb 0.00 in0.0 mm 0.00 in0.0 mm 0.00 in0.0 mm
12:00 AM 58.1°F14.5°C 56.4°F13.6°C 94% 1.4 mph S2.3 kmh S 5.2 mph8.4 kmh 30.15 in1021.0 mb 0.00 in0.0 mm 0.00 in0.0 mm 0.00 in0.0 mm